sensor_id;sensor_type;location;lat;lon;timestamp;P1;durP1;ratioP1;P2;durP2;ratioP2
36547;SDS011;22551;52.206;4.856;2024-03-25T00:43:40;9.02;;;2.72;;
36547;SDS011;22551;52.206;4.856;2024-03-25T00:48:43;7.45;;;1.50;;
36547;SDS011;22551;52.206;4.856;2024-03-25T00:53:45;6.15;;;1.38;;
36547;SDS011;22551;52.206;4.856;2024-03-25T00:58:49;6.45;;;1.95;;
36547;SDS011;22551;52.206;4.856;2024-03-25T01:03:51;8.30;;;1.58;;
36547;SDS011;22551;52.206;4.856;2024-03-25T01:08:53;7.43;;;1.48;;
36547;SDS011;22551;52.206;4.856;2024-03-25T01:13:56;5.65;;;1.60;;
36547;SDS011;22551;52.206;4.856;2024-03-25T01:18:59;8.95;;;2.42;;
36547;SDS011;22551;52.206;4.856;2024-03-25T01:24:01;8.07;;;1.48;;
36547;SDS011;22551;52.206;4.856;2024-03-25T01:29:04;7.05;;;1.30;;
36547;SDS011;22551;52.206;4.856;2024-03-25T01:34:07;5.68;;;0.73;;
36547;SDS011;22551;52.206;4.856;2024-03-25T01:39:09;8.63;;;1.40;;
36547;SDS011;22551;52.206;4.856;2024-03-25T01:44:13;11.35;;;3.38;;
36547;SDS011;22551;52.206;4.856;2024-03-25T01:49:15;6.80;;;1.77;;
36547;SDS011;22551;52.206;4.856;2024-03-25T03:03:25;4.38;;;1.40;;
36547;SDS011;22551;52.206;4.856;2024-03-25T03:08:27;3.83;;;1.73;;
36547;SDS011;22551;52.206;4.856;2024-03-25T03:13:29;5.40;;;1.45;;
36547;SDS011;22551;52.206;4.856;2024-03-25T03:18:33;16.45;;;2.10;;
36547;SDS011;22551;52.206;4.856;2024-03-25T03:23:36;5.97;;;1.00;;
36547;SDS011;22551;52.206;4.856;2024-03-25T03:28:38;3.88;;;1.15;;
36547;SDS011;22551;52.206;4.856;2024-03-25T03:33:41;4.15;;;1.42;;
36547;SDS011;22551;52.206;4.856;2024-03-25T03:38:43;8.52;;;1.52;;
36547;SDS011;22551;52.206;4.856;2024-03-25T03:43:45;9.18;;;1.88;;
36547;SDS011;22551;52.206;4.856;2024-03-25T03:48:49;7.47;;;2.30;;
36547;SDS011;22551;52.206;4.856;2024-03-25T03:53:51;10.40;;;1.88;;
36547;SDS011;22551;52.206;4.856;2024-03-25T03:58:53;6.25;;;1.38;;
36547;SDS011;22551;52.206;4.856;2024-03-25T04:03:57;2.33;;;1.23;;
36547;SDS011;22551;52.206;4.856;2024-03-25T04:08:59;6.88;;;1.23;;
36547;SDS011;22551;52.206;4.856;2024-03-25T04:14:01;7.10;;;1.35;;
36547;SDS011;22551;52.206;4.856;2024-03-25T04:19:04;13.35;;;1.77;;
36547;SDS011;22551;52.206;4.856;2024-03-25T04:24:07;9.98;;;1.70;;
36547;SDS011;22551;52.206;4.856;2024-03-25T04:29:09;6.85;;;1.02;;
36547;SDS011;22551;52.206;4.856;2024-03-25T04:34:13;11.30;;;1.60;;
36547;SDS011;22551;52.206;4.856;2024-03-25T04:39:16;2.35;;;1.10;;
36547;SDS011;22551;52.206;4.856;2024-03-25T04:44:17;6.43;;;1.27;;
36547;SDS011;22551;52.206;4.856;2024-03-25T04:49:20;11.65;;;1.83;;
36547;SDS011;22551;52.206;4.856;2024-03-25T04:54:21;4.88;;;1.70;;
36547;SDS011;22551;52.206;4.856;2024-03-25T04:59:22;5.93;;;1.35;;
36547;SDS011;22551;52.206;4.856;2024-03-25T05:04:25;10.45;;;2.10;;
36547;SDS011;22551;52.206;4.856;2024-03-25T05:09:26;7.60;;;1.88;;
36547;SDS011;22551;52.206;4.856;2024-03-25T05:14:27;9.05;;;1.88;;
36547;SDS011;22551;52.206;4.856;2024-03-25T05:19:30;3.60;;;1.80;;
36547;SDS011;22551;52.206;4.856;2024-03-25T05:24:31;10.00;;;2.53;;
36547;SDS011;22551;52.206;4.856;2024-03-25T05:29:32;12.02;;;2.38;;
36547;SDS011;22551;52.206;4.856;2024-03-25T05:34:35;14.45;;;3.67;;
36547;SDS011;22551;52.206;4.856;2024-03-25T05:39:36;15.98;;;3.45;;
36547;SDS011;22551;52.206;4.856;2024-03-25T05:44:37;9.13;;;2.58;;
36547;SDS011;22551;52.206;4.856;2024-03-25T05:55:03;11.48;;;2.22;;
36547;SDS011;22551;52.206;4.856;2024-03-25T06:00:05;12.20;;;2.78;;
36547;SDS011;22551;52.206;4.856;2024-03-25T06:05:09;8.65;;;2.25;;
36547;SDS011;22551;52.206;4.856;2024-03-25T06:10:11;11.98;;;3.08;;
36547;SDS011;22551;52.206;4.856;2024-03-25T06:15:12;9.27;;;2.78;;
36547;SDS011;22551;52.206;4.856;2024-03-25T06:20:15;11.35;;;2.55;;
36547;SDS011;22551;52.206;4.856;2024-03-25T06:25:16;14.93;;;3.88;;
36547;SDS011;22551;52.206;4.856;2024-03-25T06:30:17;14.93;;;3.72;;
36547;SDS011;22551;52.206;4.856;2024-03-25T06:35:38;11.60;;;3.17;;
36547;SDS011;22551;52.206;4.856;2024-03-25T06:40:39;11.15;;;3.97;;
36547;SDS011;22551;52.206;4.856;2024-03-25T06:45:41;13.45;;;4.18;;
36547;SDS011;22551;52.206;4.856;2024-03-25T06:50:43;9.93;;;4.10;;
36547;SDS011;22551;52.206;4.856;2024-03-25T06:55:54;10.48;;;3.00;;
36547;SDS011;22551;52.206;4.856;2024-03-25T07:00:56;16.60;;;3.72;;
36547;SDS011;22551;52.206;4.856;2024-03-25T07:06:06;7.65;;;2.85;;
36547;SDS011;22551;52.206;4.856;2024-03-25T07:11:08;15.75;;;3.63;;
36547;SDS011;22551;52.206;4.856;2024-03-25T07:16:09;12.88;;;3.05;;
36547;SDS011;22551;52.206;4.856;2024-03-25T07:21:11;9.85;;;3.47;;
36547;SDS011;22551;52.206;4.856;2024-03-25T07:26:12;11.32;;;3.63;;
36547;SDS011;22551;52.206;4.856;2024-03-25T07:31:14;14.32;;;3.20;;
36547;SDS011;22551;52.206;4.856;2024-03-25T07:36:16;18.30;;;3.47;;
36547;SDS011;22551;52.206;4.856;2024-03-25T07:56:50;16.67;;;3.17;;
36547;SDS011;22551;52.206;4.856;2024-03-25T08:01:51;12.55;;;2.45;;
36547;SDS011;22551;52.206;4.856;2024-03-25T08:06:52;15.77;;;2.92;;
36547;SDS011;22551;52.206;4.856;2024-03-25T08:11:55;23.58;;;3.53;;
36547;SDS011;22551;52.206;4.856;2024-03-25T08:16:56;16.13;;;2.85;;
36547;SDS011;22551;52.206;4.856;2024-03-25T08:21:57;19.70;;;2.67;;
36547;SDS011;22551;52.206;4.856;2024-03-25T08:27:00;17.88;;;4.00;;
36547;SDS011;22551;52.206;4.856;2024-03-25T08:32:01;17.95;;;3.30;;
36547;SDS011;22551;52.206;4.856;2024-03-25T08:37:02;13.65;;;2.45;;
36547;SDS011;22551;52.206;4.856;2024-03-25T08:42:05;11.48;;;2.80;;
36547;SDS011;22551;52.206;4.856;2024-03-25T08:47:07;17.42;;;3.13;;
36547;SDS011;22551;52.206;4.856;2024-03-25T08:52:08;15.05;;;2.70;;
36547;SDS011;22551;52.206;4.856;2024-03-25T08:57:10;21.20;;;2.72;;
36547;SDS011;22551;52.206;4.856;2024-03-25T09:02:11;13.23;;;2.65;;
36547;SDS011;22551;52.206;4.856;2024-03-25T09:07:13;15.32;;;2.95;;
36547;SDS011;22551;52.206;4.856;2024-03-25T09:12:17;10.30;;;2.58;;
36547;SDS011;22551;52.206;4.856;2024-03-25T09:17:18;11.77;;;2.10;;
36547;SDS011;22551;52.206;4.856;2024-03-25T09:22:19;10.50;;;2.20;;
36547;SDS011;22551;52.206;4.856;2024-03-25T09:27:22;11.07;;;1.90;;
36547;SDS011;22551;52.206;4.856;2024-03-25T09:32:23;13.55;;;2.53;;
36547;SDS011;22551;52.206;4.856;2024-03-25T09:37:24;13.20;;;2.90;;
36547;SDS011;22551;52.206;4.856;2024-03-25T09:42:27;9.43;;;2.10;;
36547;SDS011;22551;52.206;4.856;2024-03-25T09:47:34;14.13;;;2.78;;
36547;SDS011;22551;52.206;4.856;2024-03-25T09:52:36;14.70;;;2.60;;
36547;SDS011;22551;52.206;4.856;2024-03-25T09:57:38;11.27;;;2.80;;
36547;SDS011;22551;52.206;4.856;2024-03-25T10:02:40;8.65;;;2.53;;
36547;SDS011;22551;52.206;4.856;2024-03-25T10:07:42;11.13;;;2.58;;
36547;SDS011;22551;52.206;4.856;2024-03-25T10:12:46;12.30;;;2.78;;
36547;SDS011;22551;52.206;4.856;2024-03-25T10:17:49;11.30;;;3.67;;
36547;SDS011;22551;52.206;4.856;2024-03-25T10:22:50;15.10;;;3.13;;
36547;SDS011;22551;52.206;4.856;2024-03-25T10:27:56;11.63;;;3.85;;
36547;SDS011;22551;52.206;4.856;2024-03-25T10:32:59;11.98;;;3.58;;
36547;SDS011;22551;52.206;4.856;2024-03-25T10:38:01;13.70;;;3.58;;
36547;SDS011;22551;52.206;4.856;2024-03-25T10:43:05;12.00;;;3.90;;
36547;SDS011;22551;52.206;4.856;2024-03-25T10:48:09;11.02;;;3.85;;
36547;SDS011;22551;52.206;4.856;2024-03-25T10:53:19;14.07;;;4.55;;
36547;SDS011;22551;52.206;4.856;2024-03-25T10:58:23;12.32;;;4.25;;
36547;SDS011;22551;52.206;4.856;2024-03-25T11:03:24;10.77;;;4.45;;
36547;SDS011;22551;52.206;4.856;2024-03-25T11:08:30;7.10;;;4.03;;
36547;SDS011;22551;52.206;4.856;2024-03-25T11:13:34;9.80;;;4.10;;
36547;SDS011;22551;52.206;4.856;2024-03-25T11:18:35;10.68;;;4.97;;
36547;SDS011;22551;52.206;4.856;2024-03-25T11:23:37;9.75;;;3.92;;
36547;SDS011;22551;52.206;4.856;2024-03-25T11:28:43;6.10;;;3.50;;
36547;SDS011;22551;52.206;4.856;2024-03-25T11:33:44;13.13;;;4.68;;
36547;SDS011;22551;52.206;4.856;2024-03-25T11:38:45;10.23;;;3.45;;
36547;SDS011;22551;52.206;4.856;2024-03-25T11:43:48;6.38;;;3.00;;
36547;SDS011;22551;52.206;4.856;2024-03-25T11:48:50;6.82;;;3.70;;
36547;SDS011;22551;52.206;4.856;2024-03-25T11:53:51;9.98;;;3.58;;
36547;SDS011;22551;52.206;4.856;2024-03-25T11:58:54;6.57;;;3.33;;
36547;SDS011;22551;52.206;4.856;2024-03-25T12:03:55;11.38;;;4.13;;
36547;SDS011;22551;52.206;4.856;2024-03-25T12:08:56;8.68;;;3.13;;
36547;SDS011;22551;52.206;4.856;2024-03-25T12:14:17;5.93;;;3.00;;
36547;SDS011;22551;52.206;4.856;2024-03-25T12:19:19;6.50;;;3.03;;
36547;SDS011;22551;52.206;4.856;2024-03-25T12:24:23;6.25;;;3.10;;
36547;SDS011;22551;52.206;4.856;2024-03-25T12:29:25;6.20;;;2.55;;
36547;SDS011;22551;52.206;4.856;2024-03-25T12:34:27;7.13;;;2.42;;
36547;SDS011;22551;52.206;4.856;2024-03-25T12:39:28;8.40;;;3.42;;
36547;SDS011;22551;52.206;4.856;2024-03-25T12:44:31;7.90;;;2.40;;
36547;SDS011;22551;52.206;4.856;2024-03-25T12:49:33;6.43;;;3.03;;
36547;SDS011;22551;52.206;4.856;2024-03-25T12:54:34;4.47;;;2.28;;
36547;SDS011;22551;52.206;4.856;2024-03-25T12:59:36;5.30;;;2.40;;
36547;SDS011;22551;52.206;4.856;2024-03-25T13:04:38;3.55;;;2.40;;
36547;SDS011;22551;52.206;4.856;2024-03-25T13:09:40;7.00;;;2.17;;
36547;SDS011;22551;52.206;4.856;2024-03-25T13:14:42;6.43;;;1.92;;
36547;SDS011;22551;52.206;4.856;2024-03-25T13:19:43;6.90;;;2.22;;
36547;SDS011;22551;52.206;4.856;2024-03-25T13:24:44;5.63;;;2.63;;
36547;SDS011;22551;52.206;4.856;2024-03-25T13:29:47;6.38;;;2.53;;
36547;SDS011;22551;52.206;4.856;2024-03-25T13:34:48;5.80;;;2.90;;
36547;SDS011;22551;52.206;4.856;2024-03-25T13:39:49;6.30;;;3.15;;
36547;SDS011;22551;52.206;4.856;2024-03-25T13:44:52;7.13;;;3.15;;
36547;SDS011;22551;52.206;4.856;2024-03-25T13:50:00;9.50;;;3.97;;
36547;SDS011;22551;52.206;4.856;2024-03-25T13:55:02;7.30;;;3.70;;
36547;SDS011;22551;52.206;4.856;2024-03-25T14:00:06;6.05;;;3.13;;
36547;SDS011;22551;52.206;4.856;2024-03-25T14:05:08;8.40;;;2.88;;
36547;SDS011;22551;52.206;4.856;2024-03-25T14:10:10;4.93;;;2.40;;
36547;SDS011;22551;52.206;4.856;2024-03-25T14:15:12;6.90;;;2.63;;
36547;SDS011;22551;52.206;4.856;2024-03-25T14:20:15;6.68;;;2.67;;
36547;SDS011;22551;52.206;4.856;2024-03-25T14:25:16;5.18;;;2.22;;
36547;SDS011;22551;52.206;4.856;2024-03-25T14:30:19;4.28;;;2.05;;
36547;SDS011;22551;52.206;4.856;2024-03-25T14:35:20;4.53;;;2.40;;
36547;SDS011;22551;52.206;4.856;2024-03-25T14:40:21;4.70;;;1.85;;
36547;SDS011;22551;52.206;4.856;2024-03-25T14:45:30;6.10;;;2.08;;
36547;SDS011;22551;52.206;4.856;2024-03-25T14:50:37;13.00;;;5.03;;
36547;SDS011;22551;52.206;4.856;2024-03-25T14:55:38;8.13;;;3.92;;
36547;SDS011;22551;52.206;4.856;2024-03-25T15:00:40;7.13;;;2.95;;
36547;SDS011;22551;52.206;4.856;2024-03-25T15:05:41;4.00;;;2.38;;
36547;SDS011;22551;52.206;4.856;2024-03-25T15:10:42;6.45;;;2.92;;
36547;SDS011;22551;52.206;4.856;2024-03-25T15:15:48;6.00;;;2.95;;
36547;SDS011;22551;52.206;4.856;2024-03-25T15:20:58;5.90;;;2.60;;
36547;SDS011;22551;52.206;4.856;2024-03-25T15:26:01;7.57;;;2.28;;
36547;SDS011;22551;52.206;4.856;2024-03-25T15:31:03;4.70;;;2.55;;
36547;SDS011;22551;52.206;4.856;2024-03-25T15:36:05;6.82;;;2.67;;
36547;SDS011;22551;52.206;4.856;2024-03-25T15:41:06;9.40;;;2.95;;
36547;SDS011;22551;52.206;4.856;2024-03-25T15:46:09;8.20;;;2.58;;
36547;SDS011;22551;52.206;4.856;2024-03-25T15:51:10;6.30;;;2.25;;
36547;SDS011;22551;52.206;4.856;2024-03-25T15:56:12;8.10;;;2.40;;
36547;SDS011;22551;52.206;4.856;2024-03-25T16:01:14;7.07;;;2.85;;
36547;SDS011;22551;52.206;4.856;2024-03-25T16:06:16;10.55;;;2.03;;
36547;SDS011;22551;52.206;4.856;2024-03-25T16:11:17;5.18;;;2.13;;
36547;SDS011;22551;52.206;4.856;2024-03-25T16:16:20;3.22;;;2.35;;
36547;SDS011;22551;52.206;4.856;2024-03-25T16:21:22;4.35;;;2.15;;
36547;SDS011;22551;52.206;4.856;2024-03-25T16:26:23;5.20;;;2.33;;
36547;SDS011;22551;52.206;4.856;2024-03-25T16:31:27;7.22;;;2.63;;
36547;SDS011;22551;52.206;4.856;2024-03-25T16:36:28;8.05;;;2.40;;
36547;SDS011;22551;52.206;4.856;2024-03-25T16:41:29;6.13;;;2.85;;
36547;SDS011;22551;52.206;4.856;2024-03-25T16:46:32;5.70;;;3.38;;
36547;SDS011;22551;52.206;4.856;2024-03-25T16:51:33;9.27;;;2.35;;
36547;SDS011;22551;52.206;4.856;2024-03-25T16:56:34;5.53;;;2.28;;
36547;SDS011;22551;52.206;4.856;2024-03-25T17:01:37;7.00;;;2.50;;
36547;SDS011;22551;52.206;4.856;2024-03-25T17:06:38;3.92;;;2.28;;
36547;SDS011;22551;52.206;4.856;2024-03-25T17:11:40;3.88;;;2.17;;
36547;SDS011;22551;52.206;4.856;2024-03-25T17:16:42;6.65;;;2.60;;
36547;SDS011;22551;52.206;4.856;2024-03-25T17:21:43;6.00;;;2.10;;
36547;SDS011;22551;52.206;4.856;2024-03-25T17:26:44;6.90;;;2.60;;
36547;SDS011;22551;52.206;4.856;2024-03-25T17:31:49;4.82;;;2.30;;
36547;SDS011;22551;52.206;4.856;2024-03-25T17:43:06;7.15;;;2.78;;
36547;SDS011;22551;52.206;4.856;2024-03-25T17:48:09;9.10;;;2.42;;
36547;SDS011;22551;52.206;4.856;2024-03-25T17:53:10;7.88;;;3.35;;
36547;SDS011;22551;52.206;4.856;2024-03-25T17:58:11;6.65;;;2.45;;
36547;SDS011;22551;52.206;4.856;2024-03-25T18:03:16;4.45;;;2.30;;
36547;SDS011;22551;52.206;4.856;2024-03-25T18:08:18;6.43;;;2.05;;
36547;SDS011;22551;52.206;4.856;2024-03-25T18:13:19;8.00;;;2.22;;
36547;SDS011;22551;52.206;4.856;2024-03-25T18:18:22;6.78;;;3.05;;
36547;SDS011;22551;52.206;4.856;2024-03-25T18:23:23;9.77;;;3.65;;
36547;SDS011;22551;52.206;4.856;2024-03-25T18:28:24;7.50;;;2.75;;
36547;SDS011;22551;52.206;4.856;2024-03-25T18:33:27;4.70;;;2.33;;
36547;SDS011;22551;52.206;4.856;2024-03-25T18:38:28;7.63;;;2.47;;
36547;SDS011;22551;52.206;4.856;2024-03-25T18:43:29;7.43;;;2.78;;
36547;SDS011;22551;52.206;4.856;2024-03-25T18:48:32;9.65;;;3.08;;
36547;SDS011;22551;52.206;4.856;2024-03-25T18:53:33;9.27;;;2.83;;
36547;SDS011;22551;52.206;4.856;2024-03-25T18:58:37;7.93;;;2.70;;
36547;SDS011;22551;52.206;4.856;2024-03-25T19:03:41;6.40;;;2.72;;
36547;SDS011;22551;52.206;4.856;2024-03-25T19:08:42;6.85;;;3.20;;
36547;SDS011;22551;52.206;4.856;2024-03-25T19:13:43;8.35;;;2.97;;
36547;SDS011;22551;52.206;4.856;2024-03-25T19:18:45;7.22;;;3.22;;
36547;SDS011;22551;52.206;4.856;2024-03-25T19:23:47;10.60;;;4.13;;
36547;SDS011;22551;52.206;4.856;2024-03-25T19:28:48;9.18;;;3.90;;
36547;SDS011;22551;52.206;4.856;2024-03-25T19:33:50;9.05;;;3.40;;
36547;SDS011;22551;52.206;4.856;2024-03-25T19:38:51;9.25;;;3.53;;
36547;SDS011;22551;52.206;4.856;2024-03-25T19:43:53;12.70;;;3.35;;
36547;SDS011;22551;52.206;4.856;2024-03-25T19:48:56;7.13;;;3.22;;
36547;SDS011;22551;52.206;4.856;2024-03-25T19:53:57;10.45;;;3.05;;
36547;SDS011;22551;52.206;4.856;2024-03-25T19:58:58;11.05;;;3.25;;
36547;SDS011;22551;52.206;4.856;2024-03-25T20:04:01;7.85;;;3.28;;
36547;SDS011;22551;52.206;4.856;2024-03-25T20:09:02;12.10;;;3.45;;
36547;SDS011;22551;52.206;4.856;2024-03-25T20:14:03;7.60;;;2.80;;
36547;SDS011;22551;52.206;4.856;2024-03-25T20:19:06;9.30;;;3.15;;
36547;SDS011;22551;52.206;4.856;2024-03-25T20:24:07;9.27;;;3.58;;
36547;SDS011;22551;52.206;4.856;2024-03-25T20:29:09;9.88;;;3.58;;
36547;SDS011;22551;52.206;4.856;2024-03-25T20:34:11;10.02;;;3.40;;
36547;SDS011;22551;52.206;4.856;2024-03-25T20:39:13;6.95;;;3.53;;
36547;SDS011;22551;52.206;4.856;2024-03-25T20:44:14;18.33;;;4.10;;
36547;SDS011;22551;52.206;4.856;2024-03-25T20:49:17;12.60;;;3.22;;
36547;SDS011;22551;52.206;4.856;2024-03-25T20:54:18;28.63;;;9.90;;
36547;SDS011;22551;52.206;4.856;2024-03-25T20:59:19;10.18;;;4.20;;
36547;SDS011;22551;52.206;4.856;2024-03-25T21:04:22;5.43;;;3.08;;
36547;SDS011;22551;52.206;4.856;2024-03-25T21:09:24;9.05;;;2.92;;
36547;SDS011;22551;52.206;4.856;2024-03-25T21:14:25;13.35;;;3.58;;
36547;SDS011;22551;52.206;4.856;2024-03-25T21:19:29;8.57;;;2.70;;
36547;SDS011;22551;52.206;4.856;2024-03-25T21:24:30;4.68;;;2.55;;
36547;SDS011;22551;52.206;4.856;2024-03-25T21:29:32;7.15;;;2.55;;
36547;SDS011;22551;52.206;4.856;2024-03-25T21:34:37;9.07;;;3.15;;
36547;SDS011;22551;52.206;4.856;2024-03-25T21:39:38;7.32;;;2.70;;
36547;SDS011;22551;52.206;4.856;2024-03-25T21:44:39;8.45;;;2.50;;
36547;SDS011;22551;52.206;4.856;2024-03-25T21:49:42;4.85;;;2.47;;
36547;SDS011;22551;52.206;4.856;2024-03-25T21:54:43;5.28;;;2.80;;
36547;SDS011;22551;52.206;4.856;2024-03-25T21:59:45;5.40;;;3.20;;
36547;SDS011;22551;52.206;4.856;2024-03-25T22:04:48;9.13;;;3.03;;
36547;SDS011;22551;52.206;4.856;2024-03-25T22:09:49;8.10;;;2.50;;
36547;SDS011;22551;52.206;4.856;2024-03-25T22:14:50;6.90;;;2.30;;
36547;SDS011;22551;52.206;4.856;2024-03-25T22:19:53;8.00;;;2.80;;
36547;SDS011;22551;52.206;4.856;2024-03-25T22:24:54;8.25;;;2.45;;
36547;SDS011;22551;52.206;4.856;2024-03-25T22:29:55;6.57;;;2.75;;
36547;SDS011;22551;52.206;4.856;2024-03-25T22:34:58;5.50;;;2.63;;
36547;SDS011;22551;52.206;4.856;2024-03-25T22:39:59;6.40;;;2.10;;
36547;SDS011;22551;52.206;4.856;2024-03-25T22:45:00;12.10;;;3.15;;
36547;SDS011;22551;52.206;4.856;2024-03-25T22:50:04;6.30;;;2.33;;
36547;SDS011;22551;52.206;4.856;2024-03-25T22:55:06;7.60;;;2.60;;
36547;SDS011;22551;52.206;4.856;2024-03-25T23:00:09;6.88;;;3.05;;
36547;SDS011;22551;52.206;4.856;2024-03-25T23:05:14;8.77;;;3.15;;
36547;SDS011;22551;52.206;4.856;2024-03-25T23:10:15;4.10;;;2.58;;
36547;SDS011;22551;52.206;4.856;2024-03-25T23:15:17;9.52;;;2.53;;
36547;SDS011;22551;52.206;4.856;2024-03-25T23:20:19;7.70;;;2.40;;
36547;SDS011;22551;52.206;4.856;2024-03-25T23:25:20;13.18;;;2.80;;
36547;SDS011;22551;52.206;4.856;2024-03-25T23:30:21;6.80;;;2.85;;
36547;SDS011;22551;52.206;4.856;2024-03-25T23:35:24;6.80;;;2.55;;
36547;SDS011;22551;52.206;4.856;2024-03-25T23:40:25;7.10;;;2.60;;
36547;SDS011;22551;52.206;4.856;2024-03-25T23:45:27;8.43;;;2.80;;
36547;SDS011;22551;52.206;4.856;2024-03-25T23:50:29;7.45;;;2.50;;
36547;SDS011;22551;52.206;4.856;2024-03-25T23:55:30;6.93;;;2.50;;
